createdAt,value
2018-09-19T00:00:45.588Z,0.00
2018-09-19T00:01:45.572Z,0.00
2018-09-19T00:02:45.556Z,0.00
2018-09-19T00:03:45.531Z,0.00
2018-09-19T00:04:45.541Z,0.00
2018-09-19T00:05:45.504Z,0.00
2018-09-19T00:06:45.521Z,0.00
2018-09-19T00:07:45.458Z,0.00
2018-09-19T00:08:45.440Z,0.00
2018-09-19T00:09:45.425Z,0.00
2018-09-19T00:10:45.406Z,0.00
2018-09-19T00:11:45.404Z,0.00
2018-09-19T00:12:45.376Z,0.00
2018-09-19T00:13:45.365Z,0.00
2018-09-19T00:14:45.338Z,0.00
2018-09-19T00:15:45.328Z,0.00
2018-09-19T00:16:45.298Z,0.00
2018-09-19T00:17:45.301Z,0.00
2018-09-19T00:18:45.279Z,0.00
2018-09-19T00:19:45.256Z,0.00
2018-09-19T00:20:45.243Z,0.00
2018-09-19T00:21:45.207Z,0.00
2018-09-19T00:22:45.209Z,0.00
2018-09-19T00:23:45.177Z,0.00
2018-09-19T00:24:45.158Z,0.00
2018-09-19T00:25:45.141Z,0.00
2018-09-19T00:26:45.125Z,0.00
2018-09-19T00:27:45.101Z,0.00
2018-09-19T00:28:45.095Z,0.00
2018-09-19T00:29:45.067Z,0.00
2018-09-19T00:30:45.058Z,0.00
2018-09-19T00:31:45.036Z,0.00
2018-09-19T00:32:45.020Z,0.00
2018-09-19T00:33:45.001Z,0.00
2018-09-19T00:34:45.031Z,0.00
2018-09-19T00:35:45.017Z,0.00
2018-09-19T00:36:44.952Z,0.00
2018-09-19T00:37:44.920Z,0.00
2018-09-19T00:38:44.911Z,0.00
2018-09-19T00:39:44.904Z,0.00
2018-09-19T00:40:44.877Z,0.00
2018-09-19T00:41:44.873Z,0.00
2018-09-19T00:42:44.839Z,0.00
2018-09-19T00:43:44.817Z,0.00
2018-09-19T00:44:44.800Z,0.00
2018-09-19T00:45:44.781Z,0.00
2018-09-19T00:46:44.767Z,0.00
2018-09-19T00:47:44.746Z,0.00
2018-09-19T00:48:44.730Z,0.00
2018-09-19T00:49:44.709Z,0.00
2018-09-19T00:50:44.693Z,0.00
2018-09-19T00:51:44.677Z,0.00
2018-09-19T00:52:44.659Z,0.00
2018-09-19T00:53:44.630Z,0.00
2018-09-19T00:54:44.618Z,0.00
2018-09-19T00:55:44.600Z,0.00
2018-09-19T00:56:44.601Z,0.00
2018-09-19T00:57:44.563Z,0.00
2018-09-19T00:58:44.546Z,0.00
2018-09-19T00:59:44.526Z,0.00
2018-09-19T01:00:44.509Z,0.00
2018-09-19T01:01:44.494Z,0.00
2018-09-19T01:02:44.468Z,0.00
2018-09-19T01:03:44.455Z,0.00
2018-09-19T01:04:44.437Z,0.00
2018-09-19T01:05:44.421Z,0.00
2018-09-19T01:06:44.394Z,0.00
2018-09-19T01:07:44.382Z,0.00
2018-09-19T01:08:44.362Z,0.00
2018-09-19T01:09:44.344Z,0.00
2018-09-19T01:10:44.340Z,0.00
2018-09-19T01:11:44.315Z,0.00
2018-09-19T01:12:44.306Z,0.00
2018-09-19T01:13:44.270Z,0.00
2018-09-19T01:14:44.252Z,0.00
2018-09-19T01:15:44.229Z,0.00
2018-09-19T01:16:44.217Z,0.00
2018-09-19T01:17:44.201Z,0.00
2018-09-19T01:18:44.210Z,0.00
2018-09-19T01:19:44.164Z,0.00
2018-09-19T01:20:44.146Z,0.00
2018-09-19T01:21:44.129Z,0.00
2018-09-19T01:22:44.109Z,0.00
2018-09-19T01:23:44.093Z,0.00
2018-09-19T01:24:44.069Z,0.00
2018-09-19T01:25:44.052Z,0.00
2018-09-19T01:26:44.032Z,0.00
2018-09-19T01:27:44.012Z,0.00
2018-09-19T01:28:44.041Z,0.00
2018-09-19T01:29:43.980Z,0.00
2018-09-19T01:30:43.956Z,0.00
2018-09-19T01:31:43.939Z,0.00
2018-09-19T01:32:43.924Z,0.00
2018-09-19T01:33:43.903Z,0.00
2018-09-19T01:34:43.886Z,0.00
2018-09-19T01:35:43.866Z,0.00
2018-09-19T01:36:43.849Z,0.00
2018-09-19T01:37:43.836Z,0.00
2018-09-19T01:38:43.813Z,0.00
2018-09-19T01:39:43.782Z,0.00
2018-09-19T01:40:43.785Z,0.00
2018-09-19T01:41:43.801Z,0.00
2018-09-19T01:42:43.736Z,0.00
2018-09-19T01:43:43.719Z,0.00
2018-09-19T01:44:43.700Z,0.00
2018-09-19T01:45:43.680Z,0.00
2018-09-19T01:46:43.664Z,0.00
2018-09-19T01:47:43.650Z,0.00
2018-09-19T01:48:43.623Z,0.00
2018-09-19T01:49:43.608Z,0.00
2018-09-19T01:50:43.589Z,0.00
2018-09-19T01:51:43.566Z,0.00
2018-09-19T01:52:43.552Z,0.00
2018-09-19T01:53:43.532Z,0.00
2018-09-19T01:54:43.517Z,0.00
2018-09-19T01:55:43.498Z,0.00
2018-09-19T01:56:43.476Z,0.00
2018-09-19T01:57:43.462Z,0.00
2018-09-19T01:58:43.438Z,0.00
2018-09-19T01:59:43.429Z,0.00
2018-09-19T02:00:43.402Z,0.00
2018-09-19T02:01:43.387Z,0.00
2018-09-19T02:02:43.382Z,0.00
2018-09-19T02:03:43.348Z,0.00
2018-09-19T02:04:43.325Z,0.00
2018-09-19T02:05:43.312Z,0.00
2018-09-19T02:06:43.289Z,0.00
2018-09-19T02:07:43.271Z,0.00
2018-09-19T02:08:43.251Z,0.00
2018-09-19T02:09:43.240Z,0.00
2018-09-19T02:10:43.212Z,0.00
2018-09-19T02:11:43.197Z,0.00
2018-09-19T02:12:43.177Z,0.00
2018-09-19T02:13:43.161Z,0.00
2018-09-19T02:14:43.138Z,0.00
2018-09-19T02:15:43.118Z,0.00
2018-09-19T02:16:43.107Z,0.00
2018-09-19T02:17:43.089Z,0.00
2018-09-19T02:18:43.063Z,0.00
2018-09-19T02:19:43.048Z,0.00
2018-09-19T02:20:43.026Z,0.00
2018-09-19T02:21:43.005Z,0.00
2018-09-19T02:22:42.988Z,0.00
2018-09-19T02:23:42.971Z,0.00
2018-09-19T02:24:42.947Z,0.00
2018-09-19T02:25:42.931Z,0.00
2018-09-19T02:26:42.918Z,0.00
2018-09-19T02:27:42.930Z,0.00
2018-09-19T02:28:42.919Z,0.00
2018-09-19T02:29:42.860Z,0.00
2018-09-19T02:30:42.840Z,0.00
2018-09-19T02:31:42.821Z,0.00
2018-09-19T02:32:42.801Z,0.00
2018-09-19T02:33:42.784Z,0.00
2018-09-19T02:34:42.769Z,0.00
2018-09-19T02:35:42.742Z,0.00
2018-09-19T02:36:42.733Z,0.00
2018-09-19T02:37:42.712Z,0.00
2018-09-19T02:38:42.689Z,0.00
2018-09-19T02:39:42.661Z,0.00
2018-09-19T02:40:42.661Z,0.00
2018-09-19T02:41:42.631Z,0.00
2018-09-19T02:42:42.632Z,0.00
2018-09-19T02:43:42.606Z,0.00
2018-09-19T02:44:42.577Z,0.00
2018-09-19T02:45:42.556Z,0.00
2018-09-19T02:46:42.538Z,0.00
2018-09-19T02:47:42.535Z,0.00
2018-09-19T02:48:42.501Z,0.00
2018-09-19T02:49:42.485Z,0.00
2018-09-19T02:50:42.461Z,0.00
2018-09-19T02:51:42.434Z,0.00
2018-09-19T02:52:42.424Z,0.00
2018-09-19T02:53:42.403Z,0.00
2018-09-19T02:54:42.393Z,0.00
2018-09-19T02:55:42.392Z,0.00
2018-09-19T02:56:42.349Z,0.00
2018-09-19T02:57:42.333Z,0.00
2018-09-19T02:58:42.304Z,0.00
2018-09-19T02:59:42.305Z,0.00
2018-09-19T03:00:42.282Z,0.00
2018-09-19T03:01:42.278Z,0.00
2018-09-19T03:02:42.233Z,0.00
2018-09-19T03:03:42.232Z,0.00
2018-09-19T03:05:42.183Z,0.00
2018-09-19T03:06:42.158Z,0.00
2018-09-19T03:07:42.142Z,0.00
2018-09-19T03:08:42.120Z,0.00
2018-09-19T03:09:42.101Z,0.00
2018-09-19T03:10:42.086Z,0.00
2018-09-19T03:11:42.057Z,0.00
2018-09-19T03:12:42.051Z,0.00
2018-09-19T03:13:42.028Z,0.00
2018-09-19T03:14:42.006Z,0.00
2018-09-19T03:15:41.988Z,0.00
2018-09-19T03:16:41.971Z,0.00
2018-09-19T03:17:42.087Z,0.00
2018-09-19T03:18:41.930Z,0.00
2018-09-19T03:19:41.910Z,0.00
2018-09-19T03:20:41.907Z,0.00
2018-09-19T03:21:41.882Z,0.00
2018-09-19T03:22:41.857Z,0.00
2018-09-19T03:23:41.830Z,0.00
2018-09-19T03:24:41.820Z,0.00
2018-09-19T03:25:41.819Z,0.00
2018-09-19T03:26:41.783Z,0.00
2018-09-19T03:27:41.764Z,0.00
2018-09-19T03:28:41.739Z,0.00
2018-09-19T03:29:41.723Z,0.00
2018-09-19T03:30:41.699Z,0.00
2018-09-19T03:31:41.680Z,0.00
2018-09-19T03:32:41.658Z,0.00
2018-09-19T03:33:41.647Z,0.00
2018-09-19T03:34:41.629Z,0.00
2018-09-19T03:35:41.611Z,0.00
2018-09-19T03:36:41.595Z,0.00
2018-09-19T03:37:41.570Z,0.00
2018-09-19T03:38:41.558Z,0.00
2018-09-19T03:39:41.527Z,0.00
2018-09-19T03:40:41.541Z,0.00
2018-09-19T03:41:41.498Z,0.00
2018-09-19T03:42:41.476Z,0.00
2018-09-19T03:43:41.465Z,0.00
2018-09-19T03:44:41.440Z,0.00
2018-09-19T03:45:41.412Z,0.00
2018-09-19T03:46:41.397Z,0.00
2018-09-19T03:47:41.374Z,0.00
2018-09-19T03:48:41.376Z,0.00
2018-09-19T03:49:41.347Z,0.00
2018-09-19T03:50:41.327Z,0.00
2018-09-19T03:51:41.298Z,0.00
2018-09-19T03:52:41.277Z,0.00
2018-09-19T03:53:41.275Z,0.00
2018-09-19T03:54:41.251Z,0.00
2018-09-19T03:55:41.224Z,0.00
2018-09-19T03:56:41.206Z,0.00
2018-09-19T03:57:41.195Z,0.00
2018-09-19T03:58:41.177Z,0.00
2018-09-19T03:59:41.172Z,0.00
2018-09-19T04:00:41.135Z,0.00
2018-09-19T04:01:41.110Z,0.00
2018-09-19T04:02:41.095Z,0.00
2018-09-19T04:03:41.069Z,0.00
2018-09-19T04:04:41.056Z,0.00
2018-09-19T04:05:41.043Z,0.00
2018-09-19T04:06:41.024Z,0.00
2018-09-19T04:07:40.999Z,0.00
2018-09-19T04:08:40.985Z,0.00
2018-09-19T04:09:40.960Z,0.00
2018-09-19T04:10:40.947Z,0.00
2018-09-19T04:11:40.921Z,0.00
2018-09-19T04:12:40.907Z,0.00
2018-09-19T04:13:40.884Z,0.00
2018-09-19T04:14:40.867Z,0.00
2018-09-19T04:15:40.844Z,0.00
2018-09-19T04:16:40.837Z,0.00
2018-09-19T04:17:40.815Z,0.00
2018-09-19T04:18:40.795Z,0.00
2018-09-19T04:19:40.767Z,0.00
2018-09-19T04:20:40.767Z,0.00
2018-09-19T04:21:40.750Z,0.00
2018-09-19T04:22:40.715Z,0.00
2018-09-19T04:23:40.695Z,0.00
2018-09-19T04:24:40.687Z,0.00
2018-09-19T04:25:40.658Z,0.00
2018-09-19T04:26:40.641Z,0.00
2018-09-19T04:27:40.615Z,0.00
2018-09-19T04:28:40.595Z,0.00
2018-09-19T04:29:40.582Z,0.00
2018-09-19T04:30:40.565Z,0.00
2018-09-19T04:31:40.544Z,0.00
2018-09-19T04:32:40.518Z,0.00
2018-09-19T04:33:40.497Z,0.00
2018-09-19T04:34:40.482Z,0.00
2018-09-19T04:35:40.459Z,0.00
2018-09-19T04:36:40.446Z,0.00
2018-09-19T04:37:40.423Z,0.00
2018-09-19T04:38:40.405Z,0.00
2018-09-19T04:39:40.387Z,0.00
2018-09-19T04:40:40.372Z,0.00
2018-09-19T04:41:40.354Z,0.00
2018-09-19T04:42:40.322Z,0.00
2018-09-19T04:43:40.319Z,0.00
2018-09-19T04:44:40.289Z,0.00
2018-09-19T04:45:40.283Z,0.00
2018-09-19T04:46:40.259Z,0.00
2018-09-19T04:47:40.229Z,0.00
2018-09-19T04:48:40.209Z,0.00
2018-09-19T04:49:40.193Z,0.00
2018-09-19T04:50:40.174Z,0.00
2018-09-19T04:51:40.214Z,0.00
2018-09-19T04:52:40.141Z,0.00
2018-09-19T04:53:40.132Z,0.00
2018-09-19T04:54:40.106Z,0.00
2018-09-19T04:55:40.079Z,0.00
2018-09-19T04:56:40.063Z,0.00
2018-09-19T04:57:40.041Z,0.00
2018-09-19T04:58:40.026Z,0.00
2018-09-19T04:59:40.005Z,0.00
2018-09-19T05:00:39.989Z,0.00
2018-09-19T05:01:39.967Z,0.00
2018-09-19T05:02:39.953Z,0.00
2018-09-19T05:03:39.928Z,0.00
2018-09-19T05:04:39.914Z,0.00
2018-09-19T05:05:39.904Z,0.00
2018-09-19T05:06:39.871Z,0.00
2018-09-19T05:07:39.852Z,0.00
2018-09-19T05:08:39.835Z,0.00
2018-09-19T05:09:39.813Z,0.00
2018-09-19T05:10:39.795Z,5.63
2018-09-19T05:11:39.776Z,5.63
2018-09-19T05:12:39.754Z,5.63
2018-09-19T05:13:39.741Z,5.63
2018-09-19T05:14:39.719Z,5.63
2018-09-19T05:15:39.701Z,5.63
2018-09-19T05:16:39.689Z,5.63
2018-09-19T05:17:39.670Z,5.63
2018-09-19T05:18:39.649Z,5.63
2018-09-19T05:19:39.620Z,5.63
2018-09-19T05:20:39.606Z,11.25
2018-09-19T05:21:39.598Z,11.25
2018-09-19T05:22:39.570Z,11.25
2018-09-19T05:23:39.550Z,11.25
2018-09-19T05:24:39.536Z,11.25
2018-09-19T05:25:39.510Z,11.25
2018-09-19T05:26:39.492Z,16.88
2018-09-19T05:27:39.477Z,16.88
2018-09-19T05:28:39.455Z,16.88
2018-09-19T05:29:39.434Z,16.88
2018-09-19T05:30:39.410Z,16.88
2018-09-19T05:31:39.413Z,16.88
2018-09-19T05:32:39.380Z,22.50
2018-09-19T05:33:39.357Z,22.50
2018-09-19T05:34:39.352Z,22.50
2018-09-19T05:35:39.323Z,22.50
2018-09-19T05:36:39.474Z,28.13
2018-09-19T05:37:39.285Z,28.13
2018-09-19T05:38:39.266Z,28.13
2018-09-19T05:39:39.243Z,28.13
2018-09-19T05:40:39.229Z,33.75
2018-09-19T05:41:39.209Z,33.75
2018-09-19T05:42:39.201Z,33.75
2018-09-19T05:43:39.171Z,39.38
2018-09-19T05:44:39.152Z,39.38
2018-09-19T05:45:39.400Z,39.38
2018-09-19T05:46:39.123Z,45.00
2018-09-19T05:47:39.088Z,45.00
2018-09-19T05:48:39.074Z,45.00
2018-09-19T05:49:39.060Z,50.63
2018-09-19T05:50:39.044Z,50.63
2018-09-19T05:51:39.018Z,50.63
2018-09-19T05:52:39.007Z,50.63
2018-09-19T05:53:38.984Z,56.25
2018-09-19T05:54:39.044Z,56.25
2018-09-19T05:55:38.940Z,56.25
2018-09-19T05:56:38.926Z,56.25
2018-09-19T05:57:38.908Z,61.88
2018-09-19T05:58:38.888Z,61.88
2018-09-19T05:59:38.870Z,67.50
2018-09-19T06:00:38.850Z,67.50
2018-09-19T06:01:38.835Z,73.13
2018-09-19T06:02:38.817Z,78.75
2018-09-19T06:03:38.792Z,78.75
2018-09-19T06:04:38.777Z,78.75
2018-09-19T06:05:38.756Z,78.75
2018-09-19T06:06:38.737Z,84.38
2018-09-19T06:07:38.720Z,84.38
2018-09-19T06:08:38.704Z,84.38
2018-09-19T06:09:38.682Z,84.38
2018-09-19T06:10:38.664Z,84.38
2018-09-19T06:11:38.643Z,84.38
2018-09-19T06:12:38.643Z,90.00
2018-09-19T06:13:38.606Z,95.63
2018-09-19T06:14:38.588Z,95.63
2018-09-19T06:15:38.565Z,95.63
2018-09-19T06:16:38.560Z,101.25
2018-09-19T06:17:38.534Z,101.25
2018-09-19T06:18:38.514Z,101.25
2018-09-19T06:19:38.499Z,106.88
2018-09-19T06:20:38.481Z,106.88
2018-09-19T06:21:38.460Z,112.50
2018-09-19T06:22:38.446Z,118.13
2018-09-19T06:23:38.423Z,135.00
2018-09-19T06:24:38.405Z,157.50
2018-09-19T06:25:38.386Z,168.75
2018-09-19T06:26:38.374Z,168.75
2018-09-19T06:27:38.351Z,168.75
2018-09-19T06:28:38.330Z,174.38
2018-09-19T06:29:38.318Z,151.88
2018-09-19T06:30:38.297Z,146.25
2018-09-19T06:31:38.276Z,168.75
2018-09-19T06:32:38.270Z,180.00
2018-09-19T06:33:38.243Z,185.63
2018-09-19T06:34:38.225Z,191.25
2018-09-19T06:35:38.204Z,196.88
2018-09-19T06:36:38.188Z,208.13
2018-09-19T06:37:38.173Z,208.13
2018-09-19T06:38:38.153Z,213.75
2018-09-19T06:39:38.134Z,219.38
2018-09-19T06:40:38.172Z,225.00
2018-09-19T06:41:38.100Z,230.63
2018-09-19T06:42:38.106Z,230.63
2018-09-19T06:43:38.065Z,236.25
2018-09-19T06:44:38.047Z,241.88
2018-09-19T06:45:38.091Z,247.50
2018-09-19T06:46:38.014Z,264.38
2018-09-19T06:47:37.996Z,275.63
2018-09-19T06:48:37.980Z,286.88
2018-09-19T06:49:37.963Z,298.13
2018-09-19T06:50:37.943Z,309.38
2018-09-19T06:51:37.933Z,315.00
2018-09-19T06:52:37.914Z,320.63
2018-09-19T06:53:37.895Z,253.13
2018-09-19T06:54:37.881Z,298.13
2018-09-19T06:55:37.873Z,303.75
2018-09-19T06:56:37.886Z,258.75
2018-09-19T06:57:37.833Z,337.50
2018-09-19T06:58:37.812Z,343.13
2018-09-19T06:59:37.879Z,348.75
2018-09-19T07:00:37.788Z,343.13
2018-09-19T07:01:38.120Z,258.75
2018-09-19T07:02:37.758Z,354.38
2018-09-19T07:03:37.732Z,270.00
2018-09-19T07:04:37.727Z,230.63
2018-09-19T07:05:37.748Z,208.13
2018-09-19T07:06:37.692Z,196.88
2018-09-19T07:07:37.817Z,185.63
2018-09-19T07:08:37.656Z,185.63
2018-09-19T07:09:37.641Z,185.63
2018-09-19T07:10:37.704Z,180.00
2018-09-19T07:11:37.608Z,180.00
2018-09-19T07:12:37.997Z,174.38
2018-09-19T07:13:37.577Z,174.38
2018-09-19T07:14:37.569Z,174.38
2018-09-19T07:15:37.548Z,174.38
2018-09-19T07:16:37.529Z,168.75
2018-09-19T07:17:37.533Z,168.75
2018-09-19T07:18:37.509Z,163.13
2018-09-19T07:19:37.486Z,163.13
2018-09-19T07:20:37.550Z,157.50
2018-09-19T07:21:37.457Z,151.88
2018-09-19T07:22:37.442Z,151.88
2018-09-19T07:23:37.455Z,151.88
2018-09-19T07:24:37.415Z,151.88
2018-09-19T07:25:37.393Z,151.88
2018-09-19T07:26:37.383Z,151.88
2018-09-19T07:27:37.369Z,151.88
2018-09-19T07:28:37.351Z,151.88
2018-09-19T07:29:37.341Z,151.88
2018-09-19T07:30:37.382Z,151.88
2018-09-19T07:31:37.305Z,151.88
2018-09-19T07:32:37.294Z,151.88
2018-09-19T07:33:37.275Z,163.13
2018-09-19T07:34:37.258Z,157.50
2018-09-19T07:35:37.296Z,157.50
2018-09-19T07:36:37.372Z,157.50
2018-09-19T07:37:37.207Z,157.50
2018-09-19T07:38:37.197Z,157.50
2018-09-19T07:39:37.182Z,157.50
2018-09-19T07:40:37.173Z,157.50
2018-09-19T07:41:37.153Z,163.13
2018-09-19T07:42:37.135Z,163.13
2018-09-19T07:43:37.122Z,163.13
2018-09-19T07:44:37.571Z,168.75
2018-09-19T07:45:37.696Z,168.75
2018-09-19T07:46:37.131Z,174.38
2018-09-19T07:47:37.067Z,180.00
2018-09-19T07:48:37.130Z,180.00
2018-09-19T07:49:37.022Z,185.63
2018-09-19T07:50:37.012Z,185.63
2018-09-19T07:51:36.995Z,185.63
2018-09-19T07:52:36.981Z,185.63
2018-09-19T07:53:36.963Z,185.63
2018-09-19T07:54:36.996Z,185.63
2018-09-19T07:55:37.008Z,180.00
2018-09-19T07:56:36.937Z,180.00
2018-09-19T07:57:36.909Z,174.38
2018-09-19T07:58:36.900Z,180.00
2018-09-19T07:59:36.883Z,180.00
2018-09-19T08:00:36.999Z,180.00
2018-09-19T08:01:36.842Z,174.38
2018-09-19T08:02:36.831Z,180.00
2018-09-19T08:03:36.825Z,180.00
2018-09-19T08:04:37.567Z,180.00
2018-09-19T08:05:36.784Z,180.00
2018-09-19T08:06:36.810Z,174.38
2018-09-19T08:07:36.747Z,168.75
2018-09-19T08:08:36.742Z,163.13
2018-09-19T08:09:36.719Z,157.50
2018-09-19T08:10:36.706Z,157.50
2018-09-19T08:11:36.686Z,151.88
2018-09-19T08:12:36.687Z,135.00
2018-09-19T08:13:36.659Z,140.63
2018-09-19T08:14:36.723Z,146.25
2018-09-19T08:15:36.632Z,174.38
2018-09-19T08:16:36.620Z,174.38
2018-09-19T08:17:36.605Z,168.75
2018-09-19T08:18:36.597Z,174.38
2018-09-19T08:19:36.577Z,174.38
2018-09-19T08:20:36.573Z,174.38
2018-09-19T08:21:36.551Z,174.38
2018-09-19T08:22:36.571Z,174.38
2018-09-19T08:23:36.525Z,174.38
2018-09-19T08:24:36.497Z,174.38
2018-09-19T08:25:36.475Z,180.00
2018-09-19T08:26:36.466Z,185.63
2018-09-19T08:27:36.456Z,191.25
2018-09-19T08:28:36.434Z,213.75
2018-09-19T08:29:36.423Z,225.00
2018-09-19T08:30:36.404Z,236.25
2018-09-19T08:31:36.391Z,236.25
2018-09-19T08:32:36.378Z,230.63
2018-09-19T08:33:36.355Z,213.75
2018-09-19T08:34:36.350Z,202.50
2018-09-19T08:35:36.344Z,219.38
2018-09-19T08:36:36.320Z,247.50
2018-09-19T08:37:36.302Z,286.88
2018-09-19T08:38:36.302Z,315.00
2018-09-19T08:39:36.310Z,320.63
2018-09-19T08:40:36.258Z,315.00
2018-09-19T08:41:36.243Z,303.75
2018-09-19T08:42:36.242Z,309.38
2018-09-19T08:43:36.219Z,298.13
2018-09-19T08:44:36.219Z,253.13
2018-09-19T08:45:36.190Z,236.25
2018-09-19T08:46:36.174Z,230.63
2018-09-19T08:47:36.177Z,275.63
2018-09-19T08:48:36.149Z,225.00
2018-09-19T08:49:36.137Z,230.63
2018-09-19T08:50:36.189Z,219.38
2018-09-19T08:51:36.109Z,219.38
2018-09-19T08:52:36.091Z,202.50
2018-09-19T08:53:36.072Z,191.25
2018-09-19T08:54:36.065Z,185.63
2018-09-19T08:55:36.045Z,185.63
2018-09-19T08:56:36.037Z,185.63
2018-09-19T08:57:36.022Z,185.63
2018-09-19T08:58:36.025Z,185.63
2018-09-19T08:59:35.995Z,180.00
2018-09-19T09:00:35.983Z,180.00
2018-09-19T09:01:35.968Z,180.00
2018-09-19T09:02:35.952Z,180.00
2018-09-19T09:03:35.940Z,180.00
2018-09-19T09:04:35.931Z,185.63
2018-09-19T09:05:35.914Z,185.63
2018-09-19T09:06:35.920Z,185.63
2018-09-19T09:07:35.884Z,185.63
2018-09-19T09:08:35.869Z,185.63
2018-09-19T09:09:35.857Z,185.63
2018-09-19T09:10:35.843Z,191.25
2018-09-19T09:11:35.829Z,185.63
2018-09-19T09:12:35.847Z,185.63
2018-09-19T09:13:35.810Z,185.63
2018-09-19T09:14:35.785Z,185.63
2018-09-19T09:15:35.804Z,185.63
2018-09-19T09:16:35.775Z,180.00
2018-09-19T09:17:35.747Z,174.38
2018-09-19T09:18:35.730Z,174.38
2018-09-19T09:19:35.724Z,196.88
2018-09-19T09:20:35.707Z,225.00
2018-09-19T09:21:35.709Z,236.25
2018-09-19T09:22:35.687Z,208.13
2018-09-19T09:23:35.670Z,196.88
2018-09-19T09:24:35.656Z,219.38
2018-09-19T09:25:35.636Z,219.38
2018-09-19T09:26:35.632Z,202.50
2018-09-19T09:27:35.613Z,196.88
2018-09-19T09:28:35.604Z,174.38
2018-09-19T09:29:35.595Z,185.63
2018-09-19T09:30:35.567Z,168.75
2018-09-19T09:31:35.560Z,168.75
2018-09-19T09:32:35.552Z,180.00
2018-09-19T09:33:35.536Z,180.00
2018-09-19T09:34:35.524Z,174.38
2018-09-19T09:35:35.508Z,174.38
2018-09-19T09:36:35.497Z,174.38
2018-09-19T09:37:35.488Z,174.38
2018-09-19T09:38:35.473Z,174.38
2018-09-19T09:39:35.457Z,168.75
2018-09-19T09:40:35.523Z,168.75
2018-09-19T09:41:35.432Z,168.75
2018-09-19T09:42:35.416Z,168.75
2018-09-19T09:43:35.446Z,163.13
2018-09-19T09:44:35.400Z,163.13
2018-09-19T09:45:35.381Z,163.13
2018-09-19T09:46:35.367Z,168.75
2018-09-19T09:47:35.343Z,168.75
2018-09-19T09:48:35.346Z,168.75
2018-09-19T09:49:35.321Z,168.75
2018-09-19T09:50:35.312Z,174.38
2018-09-19T09:51:35.317Z,174.38
2018-09-19T09:52:35.280Z,174.38
2018-09-19T09:53:35.277Z,174.38
2018-09-19T09:54:35.259Z,174.38
2018-09-19T09:55:35.254Z,174.38
2018-09-19T09:56:35.236Z,174.38
2018-09-19T09:57:35.212Z,180.00
2018-09-19T09:58:35.243Z,180.00
2018-09-19T09:59:35.213Z,180.00
2018-09-19T10:00:35.184Z,180.00
2018-09-19T10:01:35.168Z,180.00
2018-09-19T10:02:35.157Z,180.00
2018-09-19T10:03:35.141Z,185.63
2018-09-19T10:04:35.135Z,180.00
2018-09-19T10:05:35.113Z,180.00
2018-09-19T10:06:35.185Z,180.00
2018-09-19T10:07:35.092Z,185.63
2018-09-19T10:08:35.084Z,185.63
2018-09-19T10:09:35.070Z,191.25
2018-09-19T10:10:35.055Z,191.25
2018-09-19T10:11:35.043Z,202.50
2018-09-19T10:12:35.035Z,202.50
2018-09-19T10:13:35.050Z,191.25
2018-09-19T10:14:35.005Z,196.88
2018-09-19T10:15:34.994Z,196.88
2018-09-19T10:16:34.974Z,196.88
2018-09-19T10:17:34.960Z,196.88
2018-09-19T10:18:34.943Z,196.88
2018-09-19T10:19:34.927Z,202.50
2018-09-19T10:20:34.919Z,213.75
2018-09-19T10:21:34.901Z,241.88
2018-09-19T10:22:34.912Z,230.63
2018-09-19T10:23:34.888Z,270.00
2018-09-19T10:24:34.868Z,286.88
2018-09-19T10:25:34.858Z,286.88
2018-09-19T10:26:34.857Z,298.13
2018-09-19T10:27:34.828Z,303.75
2018-09-19T10:28:34.817Z,286.88
2018-09-19T10:29:34.871Z,253.13
2018-09-19T10:30:34.812Z,270.00
2018-09-19T10:31:34.779Z,298.13
2018-09-19T10:32:34.771Z,360.00
2018-09-19T10:33:34.761Z,405.00
2018-09-19T10:34:34.746Z,433.13
2018-09-19T10:35:34.797Z,455.63
2018-09-19T10:36:34.729Z,405.00
2018-09-19T10:37:34.709Z,410.63
2018-09-19T10:38:34.700Z,416.25
2018-09-19T10:39:34.690Z,438.75
2018-09-19T10:40:34.679Z,433.13
2018-09-19T10:41:34.657Z,405.00
2018-09-19T10:42:34.655Z,388.13
2018-09-19T10:43:34.636Z,461.25
2018-09-19T10:44:34.632Z,455.63
2018-09-19T10:45:34.620Z,438.75
2018-09-19T10:46:34.648Z,421.88
2018-09-19T10:47:34.625Z,320.63
2018-09-19T10:48:34.585Z,326.25
2018-09-19T10:49:34.619Z,382.50
2018-09-19T10:50:34.558Z,421.88
2018-09-19T10:51:34.548Z,444.38
2018-09-19T10:52:34.530Z,376.88
2018-09-19T10:53:34.534Z,365.63
2018-09-19T10:54:34.517Z,365.63
2018-09-19T10:55:34.517Z,331.88
2018-09-19T10:56:34.495Z,326.25
2018-09-19T10:57:34.472Z,292.50
2018-09-19T10:58:34.475Z,275.63
2018-09-19T10:59:34.473Z,270.00
2018-09-19T11:00:34.445Z,247.50
2018-09-19T11:01:34.438Z,286.88
2018-09-19T11:02:34.424Z,298.13
2018-09-19T11:03:34.416Z,298.13
2018-09-19T11:04:34.403Z,292.50
2018-09-19T11:05:34.394Z,298.13
2018-09-19T11:06:34.383Z,241.88
2018-09-19T11:07:34.376Z,202.50
2018-09-19T11:08:34.365Z,196.88
2018-09-19T11:09:34.350Z,225.00
2018-09-19T11:10:34.338Z,236.25
2018-09-19T11:11:34.335Z,264.38
2018-09-19T11:12:34.321Z,258.75
2018-09-19T11:13:34.306Z,236.25
2018-09-19T11:14:34.286Z,202.50
2018-09-19T11:15:34.285Z,202.50
2018-09-19T11:16:34.270Z,202.50
2018-09-19T11:17:34.259Z,196.88
2018-09-19T11:18:34.249Z,219.38
2018-09-19T11:19:34.232Z,236.25
2018-09-19T11:20:34.223Z,298.13
2018-09-19T11:21:34.213Z,303.75
2018-09-19T11:22:34.199Z,298.13
2018-09-19T11:23:34.203Z,309.38
2018-09-19T11:24:34.183Z,309.38
2018-09-19T11:25:34.163Z,270.00
2018-09-19T11:26:34.186Z,247.50
2018-09-19T11:27:34.141Z,264.38
2018-09-19T11:28:34.132Z,258.75
2018-09-19T11:29:34.115Z,281.25
2018-09-19T11:30:34.107Z,343.13
2018-09-19T11:31:34.093Z,410.63
2018-09-19T11:32:34.921Z,450.00
2018-09-19T11:33:34.104Z,444.38
2018-09-19T11:34:34.060Z,427.50
2018-09-19T11:35:34.056Z,450.00
2018-09-19T11:36:34.038Z,433.13
2018-09-19T11:37:34.030Z,382.50
2018-09-19T11:38:34.060Z,410.63
2018-09-19T11:39:34.283Z,416.25
2018-09-19T11:40:33.990Z,303.75
2018-09-19T11:41:33.980Z,281.25
2018-09-19T11:42:34.014Z,253.13
2018-09-19T11:43:33.980Z,253.13
2018-09-19T11:44:33.946Z,247.50
2018-09-19T11:45:33.934Z,253.13
2018-09-19T11:46:34.181Z,264.38
2018-09-19T11:47:34.406Z,236.25
2018-09-19T11:48:33.941Z,320.63
2018-09-19T11:49:33.893Z,388.13
2018-09-19T11:50:33.882Z,427.50
2018-09-19T11:51:33.871Z,427.50
2018-09-19T11:52:34.468Z,393.75
2018-09-19T11:53:33.850Z,371.25
2018-09-19T11:54:33.843Z,286.88
2018-09-19T11:55:33.822Z,281.25
2018-09-19T11:56:33.818Z,264.38
2018-09-19T11:57:33.921Z,253.13
2018-09-19T11:58:33.865Z,292.50
2018-09-19T11:59:33.791Z,326.25
2018-09-19T12:00:33.878Z,286.88
2018-09-19T12:01:33.788Z,236.25
2018-09-19T12:02:33.742Z,225.00
2018-09-19T12:03:33.740Z,225.00
2018-09-19T12:04:33.726Z,236.25
2018-09-19T12:05:33.715Z,213.75
2018-09-19T12:06:33.719Z,230.63
2018-09-19T12:07:33.694Z,230.63
2018-09-19T12:08:33.922Z,236.25
2018-09-19T12:09:33.675Z,219.38
2018-09-19T12:10:33.664Z,241.88
2018-09-19T12:11:33.654Z,247.50
2018-09-19T12:12:33.641Z,247.50
2018-09-19T12:13:33.682Z,253.13
2018-09-19T12:14:33.619Z,264.38
2018-09-19T12:15:33.601Z,236.25
2018-09-19T12:16:33.723Z,264.38
2018-09-19T12:17:33.587Z,241.88
2018-09-19T12:18:33.595Z,253.13
2018-09-19T12:19:33.610Z,264.38
2018-09-19T12:20:33.561Z,315.00
2018-09-19T12:21:33.539Z,309.38
2018-09-19T12:22:33.521Z,337.50
2018-09-19T12:23:33.513Z,348.75
2018-09-19T12:24:33.503Z,433.13
2018-09-19T12:25:33.496Z,438.75
2018-09-19T12:26:33.632Z,421.88
2018-09-19T12:27:33.463Z,376.88
2018-09-19T12:28:33.462Z,354.38
2018-09-19T12:29:33.443Z,309.38
2018-09-19T12:30:33.436Z,281.25
2018-09-19T12:31:33.434Z,292.50
2018-09-19T12:32:33.416Z,298.13
2018-09-19T12:33:33.406Z,309.38
2018-09-19T12:34:33.396Z,348.75
2018-09-19T12:35:33.387Z,405.00
2018-09-19T12:36:33.364Z,410.63
2018-09-19T12:37:33.364Z,337.50
2018-09-19T12:38:33.356Z,326.25
2018-09-19T12:39:33.362Z,365.63
2018-09-19T12:40:33.329Z,365.63
2018-09-19T12:41:33.320Z,343.13
2018-09-19T12:42:33.306Z,286.88
2018-09-19T12:43:33.301Z,286.88
2018-09-19T12:44:33.285Z,286.88
2018-09-19T12:45:33.273Z,292.50
2018-09-19T12:46:33.260Z,320.63
2018-09-19T12:47:33.247Z,309.38
2018-09-19T12:48:33.243Z,326.25
2018-09-19T12:49:33.238Z,320.63
2018-09-19T12:50:33.221Z,320.63
2018-09-19T12:51:33.212Z,326.25